Time;durP1;ratioP1;P1;durP2;ratioP2;P2;SDS_P1;SDS_P2;PMS_P1;PMS_P2;Temp;Humidity;BMP_temperature;BMP_pressure;BME280_temperature;BME280_humidity;BME280_pressure;Samples;Min_cycle;Max_cycle;Signal;HPM_P1;HPM_P2
2023/11/15 00:00:58;;;;;;;1.47;1.27;;;9.50;99.90;;;-141.84;100.00;119224.81;4983992;28;20318;-68
2023/11/15 00:03:26;;;;;;;1.10;1.00;;;9.40;99.90;;;-141.84;100.00;119224.81;4988247;28;20411;-69
2023/11/15 00:05:54;;;;;;;0.90;0.80;;;9.40;99.90;;;-141.84;100.00;119224.81;5003306;28;20798;-69
2023/11/15 00:08:23;;;;;;;1.10;0.90;;;9.40;99.90;;;-141.84;100.00;119224.81;4988176;28;20231;-69
2023/11/15 00:10:51;;;;;;;1.33;1.00;;;9.40;99.90;;;-141.84;100.00;119224.81;4984589;28;20219;-70
2023/11/15 00:13:19;;;;;;;2.00;1.00;;;9.30;99.90;;;-141.84;100.00;119224.81;4976398;28;20225;-68
2023/11/15 00:15:48;;;;;;;1.80;1.00;;;9.30;99.90;;;-141.84;100.00;119224.81;5002745;28;20327;-68
2023/11/15 00:18:17;;;;;;;1.20;1.07;;;9.30;99.90;;;-141.84;100.00;119224.81;5003644;28;20281;-69
2023/11/15 00:20:46;;;;;;;1.20;0.80;;;9.30;99.90;;;-141.84;100.00;119224.81;5003533;28;20226;-69
2023/11/15 00:23:14;;;;;;;1.67;0.90;;;9.40;99.90;;;-141.84;100.00;119224.81;4996047;28;20303;-69
2023/11/15 00:25:43;;;;;;;1.07;1.00;;;9.30;99.90;;;-141.84;100.00;119224.81;4995359;28;20464;-70
2023/11/15 00:28:13;;;;;;;0.80;0.80;;;9.30;99.90;;;-141.84;100.00;119224.81;5003558;28;20238;-69
2023/11/15 00:30:41;;;;;;;0.80;0.80;;;9.30;99.90;;;-141.84;100.00;119224.81;5003175;28;20226;-68
2023/11/15 00:33:09;;;;;;;1.37;0.70;;;9.30;99.90;;;-141.84;100.00;119224.81;4995538;28;20262;-68
2023/11/15 00:35:40;;;;;;;1.27;0.80;;;9.30;99.90;;;-141.84;100.00;119224.81;5003027;28;20733;-69
2023/11/15 00:38:08;;;;;;;0.90;0.90;;;9.40;99.90;;;-141.84;100.00;119224.81;4998839;28;20327;-69
2023/11/15 00:40:37;;;;;;;2.23;1.13;;;9.40;99.90;;;-141.84;100.00;119224.81;4983811;28;20243;-68
2023/11/15 00:43:06;;;;;;;1.33;1.10;;;9.30;99.90;;;-141.84;100.00;119224.81;4975598;28;20309;-68
2023/11/15 00:45:35;;;;;;;0.80;0.80;;;9.30;99.90;;;-141.84;100.00;119224.81;4983052;28;20239;-69
2023/11/15 00:48:04;;;;;;;0.60;0.60;;;9.30;99.90;;;-141.84;100.00;119224.81;4983642;28;20239;-69
2023/11/15 00:50:33;;;;;;;2.17;0.90;;;9.30;99.90;;;-141.84;100.00;119224.81;4983248;28;20251;-68
2023/11/15 00:53:03;;;;;;;1.33;0.80;;;9.30;99.90;;;-141.84;100.00;119224.81;4983488;28;20726;-68
2023/11/15 00:55:32;;;;;;;0.90;0.70;;;9.40;99.90;;;-141.84;100.00;119224.81;4983553;28;20211;-69
2023/11/15 00:58:03;;;;;;;0.70;0.70;;;9.30;99.90;;;-141.84;100.00;119224.81;4983694;28;20327;-68
2023/11/15 01:00:39;;;;;;;0.70;0.60;;;9.30;99.90;;;-141.84;100.00;119224.81;4983339;28;20231;-68
2023/11/15 01:03:07;;;;;;;0.70;0.70;;;9.30;99.90;;;-141.84;100.00;119224.81;4975352;28;20718;-69
2023/11/15 01:05:36;;;;;;;1.50;0.60;;;9.30;99.90;;;-141.84;100.00;119224.81;4983379;28;20611;-70
2023/11/15 01:08:06;;;;;;;1.57;0.70;;;9.30;99.90;;;-141.84;100.00;119224.81;4983424;28;20207;-70
2023/11/15 01:10:34;;;;;;;0.90;0.90;;;9.30;99.90;;;-141.84;100.00;119224.81;4983469;28;20216;-68
2023/11/15 01:13:03;;;;;;;0.90;0.80;;;9.30;99.90;;;-141.84;100.00;119224.81;4969651;28;20650;-69
2023/11/15 01:15:31;;;;;;;0.83;0.60;;;9.20;99.90;;;-141.84;100.00;119224.81;4981386;28;20231;-68
2023/11/15 01:18:07;;;;;;;0.93;0.70;;;9.20;99.90;;;-141.84;100.00;119224.81;4982253;28;20253;-69
2023/11/15 01:20:36;;;;;;;0.90;0.60;;;9.10;99.90;;;-141.84;100.00;119224.81;4983117;28;20222;-70
2023/11/15 01:23:08;;;;;;;0.73;0.60;;;9.10;99.90;;;-141.84;100.00;119224.81;4979324;28;20203;-69
2023/11/15 01:25:37;;;;;;;1.83;0.50;;;9.10;99.90;;;-141.84;100.00;119224.81;4983575;28;20207;-68
2023/11/15 01:28:05;;;;;;;0.67;0.67;;;9.10;99.90;;;-141.84;100.00;119224.81;4982428;28;20719;-68
2023/11/15 01:30:34;;;;;;;1.23;0.60;;;9.20;99.90;;;-141.84;100.00;119224.81;4982788;28;20718;-68
2023/11/15 01:33:02;;;;;;;0.80;0.60;;;9.20;99.90;;;-141.84;100.00;119224.81;4982605;28;20334;-69
2023/11/15 01:35:31;;;;;;;0.80;0.60;;;9.30;99.90;;;-141.84;100.00;119224.81;4980254;28;20286;-67
2023/11/15 01:37:59;;;;;;;2.33;0.80;;;9.20;99.90;;;-141.84;100.00;119224.81;4982894;28;20695;-68
2023/11/15 01:40:33;;;;;;;0.80;0.70;;;9.10;99.90;;;-141.84;100.00;119224.81;4983432;28;20231;-67
2023/11/15 01:43:02;;;;;;;1.37;0.67;;;9.20;99.90;;;-141.84;100.00;119224.81;4982602;28;20234;-68
2023/11/15 01:45:31;;;;;;;1.80;0.87;;;9.20;99.90;;;-141.84;100.00;119224.81;4982302;28;20328;-68
2023/11/15 01:47:59;;;;;;;1.33;0.80;;;9.20;99.90;;;-141.84;100.00;119224.81;4983389;28;20318;-69
2023/11/15 01:50:28;;;;;;;0.70;0.70;;;9.10;99.90;;;-141.84;100.00;119224.81;4982419;28;20238;-68
2023/11/15 01:52:58;;;;;;;0.73;0.70;;;9.20;99.90;;;-141.84;100.00;119224.81;4981465;28;20218;-70
2023/11/15 01:55:28;;;;;;;1.33;0.80;;;9.10;99.90;;;-141.84;100.00;119224.81;4955649;28;20763;-69
2023/11/15 01:57:58;;;;;;;0.77;0.63;;;9.10;99.90;;;-141.84;100.00;119224.81;4963519;28;20855;-68
2023/11/15 02:00:27;;;;;;;1.00;0.60;;;9.00;99.90;;;-141.84;100.00;119224.81;4963279;28;20318;-68
2023/11/15 02:02:56;;;;;;;0.67;0.60;;;9.10;99.90;;;-141.84;100.00;119224.81;4974998;28;20318;-67
2023/11/15 02:05:26;;;;;;;0.60;0.53;;;9.10;99.90;;;-141.84;100.00;119224.81;4974643;28;20239;-68
2023/11/15 02:07:55;;;;;;;1.07;0.80;;;9.10;99.90;;;-141.84;100.00;119224.81;4982795;28;20208;-69
2023/11/15 02:10:24;;;;;;;1.00;0.90;;;9.10;99.90;;;-141.84;100.00;119224.81;4983135;28;20557;-64
2023/11/15 02:12:54;;;;;;;0.80;0.80;;;9.10;99.90;;;-141.84;100.00;119224.81;4978006;28;20612;-62
2023/11/15 02:15:22;;;;;;;1.30;1.07;;;9.10;99.90;;;-141.84;100.00;119224.81;4975066;28;20289;-63
2023/11/15 02:17:51;;;;;;;1.57;0.90;;;9.10;99.90;;;-141.84;100.00;119224.81;4982657;28;20227;-63
2023/11/15 02:20:20;;;;;;;1.30;1.10;;;9.10;99.90;;;-141.84;100.00;119224.81;4982559;28;20237;-64
2023/11/15 02:22:50;;;;;;;1.00;0.90;;;9.10;99.90;;;-141.84;100.00;119224.81;4982414;28;20262;-64
2023/11/15 02:25:21;;;;;;;1.20;1.10;;;9.20;99.90;;;-141.84;100.00;119224.81;4975076;28;20298;-64
2023/11/15 02:27:49;;;;;;;1.93;1.20;;;9.20;99.90;;;-141.84;100.00;119224.81;4982730;28;20227;-64
2023/11/15 02:30:17;;;;;;;1.33;0.90;;;9.30;99.90;;;-141.84;100.00;119224.81;4985958;28;20258;-64
2023/11/15 02:32:47;;;;;;;1.20;1.00;;;9.20;99.90;;;-141.84;100.00;119224.81;4985314;28;20298;-63
2023/11/15 02:35:15;;;;;;;1.10;1.00;;;9.20;99.90;;;-141.84;100.00;119224.81;4977932;28;20769;-63
2023/11/15 02:37:44;;;;;;;1.27;1.10;;;9.30;99.90;;;-141.84;100.00;119224.81;4986391;28;20211;-63
2023/11/15 02:40:12;;;;;;;2.37;1.40;;;9.20;99.90;;;-141.84;100.00;119224.81;4985801;28;20487;-63
2023/11/15 02:42:42;;;;;;;1.33;1.20;;;9.30;99.90;;;-141.84;100.00;119224.81;4985366;28;20262;-62
2023/11/15 02:45:11;;;;;;;1.43;1.17;;;9.30;99.90;;;-141.84;100.00;119224.81;4977445;28;20231;-65
2023/11/15 02:47:39;;;;;;;1.43;1.17;;;9.30;99.90;;;-141.84;100.00;119224.81;4985862;28;20227;-63
2023/11/15 02:50:09;;;;;;;1.20;1.10;;;9.30;99.90;;;-141.84;100.00;119224.81;4977176;28;20275;-64
2023/11/15 02:52:37;;;;;;;1.60;1.50;;;9.30;99.90;;;-141.84;100.00;119224.81;4966651;28;20235;-63
2023/11/15 02:55:06;;;;;;;1.73;1.47;;;9.30;99.90;;;-141.84;100.00;119224.81;4958317;28;20748;-65
2023/11/15 02:57:34;;;;;;;2.50;1.60;;;9.30;99.90;;;-141.84;100.00;119224.81;4966084;28;20319;-64
2023/11/15 03:00:06;;;;;;;1.40;1.20;;;9.30;99.90;;;-141.84;100.00;119224.81;4966299;28;20236;-63
2023/11/15 03:02:34;;;;;;;1.47;1.37;;;9.30;99.90;;;-141.84;100.00;119224.81;4974877;28;20235;-63
2023/11/15 03:05:03;;;;;;;1.77;1.20;;;9.30;99.90;;;-141.84;100.00;119224.81;4984067;28;20216;-62
2023/11/15 03:07:31;;;;;;;1.60;1.07;;;9.10;99.90;;;-141.84;100.00;119224.81;4983680;28;20694;-62
2023/11/15 03:09:59;;;;;;;2.17;1.20;;;9.20;99.90;;;-141.84;100.00;119224.81;4985043;28;20270;-63
2023/11/15 03:12:28;;;;;;;1.60;1.40;;;9.20;99.90;;;-141.84;100.00;119224.81;4980395;28;20247;-64
2023/11/15 03:14:56;;;;;;;1.40;1.30;;;9.30;99.90;;;-141.84;100.00;119224.81;4985179;28;20231;-63
2023/11/15 03:17:25;;;;;;;1.73;1.23;;;9.30;99.90;;;-141.84;100.00;119224.81;4977469;28;20716;-63
2023/11/15 03:19:54;;;;;;;1.80;1.50;;;9.20;99.90;;;-141.84;100.00;119224.81;4985403;28;20583;-62
2023/11/15 03:22:23;;;;;;;1.77;1.30;;;9.20;99.90;;;-141.84;100.00;119224.81;4985463;28;20671;-63
2023/11/15 03:24:51;;;;;;;1.50;1.40;;;9.20;99.90;;;-141.84;100.00;119224.81;4984599;28;20287;-64
2023/11/15 03:27:19;;;;;;;1.50;1.40;;;9.20;99.90;;;-141.84;100.00;119224.81;4976859;28;20231;-63
2023/11/15 03:29:47;;;;;;;1.93;1.20;;;9.20;99.90;;;-141.84;100.00;119224.81;4984956;28;20749;-63
2023/11/15 03:32:17;;;;;;;2.47;1.37;;;9.20;99.90;;;-141.84;100.00;119224.81;4984979;28;20227;-65
2023/11/15 03:34:47;;;;;;;1.27;1.17;;;9.20;99.90;;;-141.84;100.00;119224.81;4985263;28;20227;-64
2023/11/15 03:37:15;;;;;;;2.17;1.67;;;9.30;99.90;;;-141.84;100.00;119224.81;4977496;28;20257;-63
2023/11/15 03:39:45;;;;;;;1.80;1.30;;;9.20;99.90;;;-141.84;100.00;119224.81;4983238;28;20239;-64
2023/11/15 03:42:13;;;;;;;1.77;1.30;;;9.20;99.90;;;-141.84;100.00;119224.81;4984477;28;20486;-63
2023/11/15 03:44:41;;;;;;;1.37;1.27;;;9.30;99.90;;;-141.84;100.00;119224.81;4984306;28;20666;-63
2023/11/15 03:47:09;;;;;;;2.40;1.40;;;9.30;99.90;;;-141.84;100.00;119224.81;4976613;28;20285;-64
2023/11/15 03:49:37;;;;;;;2.90;1.27;;;9.30;99.90;;;-141.84;100.00;119224.81;4984210;28;20243;-63
2023/11/15 03:52:08;;;;;;;1.27;1.17;;;9.30;99.90;;;-141.84;100.00;119224.81;4983814;28;20318;-64
2023/11/15 03:54:36;;;;;;;2.53;1.40;;;9.30;99.90;;;-141.84;100.00;119224.81;4984004;28;20255;-63
2023/11/15 03:57:07;;;;;;;1.83;1.20;;;9.30;99.90;;;-141.84;100.00;119224.81;4980625;28;20254;-67
2023/11/15 03:59:36;;;;;;;1.20;1.10;;;9.30;99.90;;;-141.84;100.00;119224.81;4984561;28;20235;-65
2023/11/15 04:02:06;;;;;;;1.43;0.90;;;9.30;99.90;;;-141.84;100.00;119224.81;4984390;28;20239;-64
2023/11/15 04:04:34;;;;;;;2.50;1.17;;;9.20;99.90;;;-141.84;100.00;119224.81;4980833;28;20239;-64
2023/11/15 04:07:04;;;;;;;1.90;1.30;;;9.20;99.90;;;-141.84;100.00;119224.81;4962740;28;20242;-64
2023/11/15 04:09:37;;;;;;;1.53;1.40;;;9.20;99.90;;;-141.84;100.00;119224.81;4964476;28;20712;-64
2023/11/15 04:12:06;;;;;;;1.63;1.40;;;9.30;99.90;;;-141.84;100.00;119224.81;4971727;28;20703;-63
2023/11/15 04:14:35;;;;;;;1.20;1.10;;;9.30;99.90;;;-141.84;100.00;119224.81;4984040;28;20314;-63
2023/11/15 04:17:05;;;;;;;1.97;1.20;;;9.30;99.90;;;-141.84;100.00;119224.81;4980767;28;20203;-63
2023/11/15 04:19:34;;;;;;;1.20;1.10;;;9.40;99.90;;;-141.84;100.00;119224.81;4984754;28;20213;-64
2023/11/15 04:22:02;;;;;;;2.20;1.20;;;9.30;99.90;;;-141.84;100.00;119224.81;4984178;28;20273;-63
2023/11/15 04:24:44;;;;;;;3.87;1.20;;;9.40;99.90;;;-141.84;100.00;119224.81;4966824;28;20645;-64
2023/11/15 04:27:12;;;;;;;1.87;1.13;;;9.30;99.90;;;-141.84;100.00;119224.81;4956385;28;20263;-64
2023/11/15 04:29:41;;;;;;;2.50;1.23;;;9.40;99.90;;;-141.84;100.00;119224.81;4965120;28;20267;-63
2023/11/15 04:32:09;;;;;;;1.13;1.03;;;9.40;99.90;;;-141.84;100.00;119224.81;4964593;28;20635;-63
2023/11/15 04:34:37;;;;;;;2.03;1.10;;;9.40;99.90;;;-141.84;100.00;119224.81;4971089;28;20250;-63
2023/11/15 04:37:06;;;;;;;1.37;0.90;;;9.40;99.90;;;-141.84;100.00;119224.81;4975652;28;20746;-62
2023/11/15 04:39:34;;;;;;;1.10;1.00;;;9.40;99.90;;;-141.84;100.00;119224.81;4983082;28;20679;-63
2023/11/15 04:42:04;;;;;;;1.90;1.13;;;9.30;99.90;;;-141.84;100.00;119224.81;4983594;28;20314;-63
2023/11/15 04:44:32;;;;;;;4.50;1.30;;;9.30;99.90;;;-141.84;100.00;119224.81;4983752;28;20702;-64
2023/11/15 04:47:00;;;;;;;4.93;2.07;;;9.30;99.90;;;-141.84;100.00;119224.81;4983586;28;20223;-64
2023/11/15 04:49:29;;;;;;;4.43;2.57;;;9.30;99.90;;;-141.84;100.00;119224.81;4979512;28;20298;-64
2023/11/15 04:51:57;;;;;;;3.57;1.70;;;9.30;99.90;;;-141.84;100.00;119224.81;4983086;28;20317;-63
2023/11/15 04:54:25;;;;;;;3.13;1.60;;;9.20;99.90;;;-141.84;100.00;119224.81;4983599;28;20321;-63
2023/11/15 04:56:53;;;;;;;1.73;1.20;;;9.30;99.90;;;-141.84;100.00;119224.81;4982820;28;20255;-64
2023/11/15 04:59:23;;;;;;;2.27;1.40;;;9.30;99.90;;;-141.84;100.00;119224.81;4976180;28;20235;-64
2023/11/15 05:01:51;;;;;;;2.03;1.40;;;9.20;99.90;;;-141.84;100.00;119224.81;4983798;28;20296;-64
2023/11/15 05:04:19;;;;;;;3.77;1.50;;;9.20;99.90;;;-141.84;100.00;119224.81;4984062;28;20689;-64
2023/11/15 05:06:48;;;;;;;2.83;1.60;;;9.20;99.90;;;-141.84;100.00;119224.81;4983349;28;20394;-62
2023/11/15 05:09:16;;;;;;;1.87;1.43;;;9.30;99.90;;;-141.84;100.00;119224.81;4975557;28;20231;-64
2023/11/15 05:11:45;;;;;;;1.77;1.33;;;9.30;99.90;;;-141.84;100.00;119224.81;4980885;28;20285;-64
2023/11/15 05:14:14;;;;;;;3.33;1.50;;;9.30;99.90;;;-141.84;100.00;119224.81;4981271;28;20605;-64
2023/11/15 05:16:44;;;;;;;2.53;1.50;;;9.30;99.90;;;-141.84;100.00;119224.81;4983714;28;20223;-63
2023/11/15 05:19:13;;;;;;;3.07;1.43;;;9.30;99.90;;;-141.84;100.00;119224.81;4975805;28;20219;-64
2023/11/15 05:21:41;;;;;;;3.10;1.30;;;9.30;99.90;;;-141.84;100.00;119224.81;4983040;28;20259;-64
2023/11/15 05:24:10;;;;;;;3.07;1.70;;;9.30;99.90;;;-141.84;100.00;119224.81;4970049;28;20246;-63
2023/11/15 05:26:39;;;;;;;3.07;1.40;;;9.30;99.90;;;-141.84;100.00;119224.81;4963504;28;20251;-64
2023/11/15 05:29:07;;;;;;;4.03;1.40;;;9.30;99.90;;;-141.84;100.00;119224.81;4955723;28;20208;-65
2023/11/15 05:31:35;;;;;;;1.47;1.37;;;9.30;99.90;;;-141.84;100.00;119224.81;4976411;28;20777;-63
2023/11/15 05:34:05;;;;;;;3.37;1.57;;;9.40;99.90;;;-141.84;100.00;119224.81;4983205;28;20235;-63
2023/11/15 05:36:33;;;;;;;2.27;1.10;;;9.30;99.90;;;-141.84;100.00;119224.81;4982702;28;20326;-64
2023/11/15 05:39:01;;;;;;;2.47;1.20;;;9.40;99.90;;;-141.84;100.00;119224.81;4982952;28;20241;-64
2023/11/15 05:41:30;;;;;;;2.00;1.37;;;9.40;99.90;;;-141.84;100.00;119224.81;4982385;28;20254;-64
2023/11/15 05:43:59;;;;;;;2.83;1.50;;;9.50;99.90;;;-141.84;100.00;119224.81;4982787;28;20616;-64
2023/11/15 05:46:27;;;;;;;2.90;1.30;;;9.40;99.90;;;-141.84;100.00;119224.81;4983145;28;20262;-65
2023/11/15 05:48:56;;;;;;;2.97;1.30;;;9.40;99.90;;;-141.84;100.00;119224.81;4982817;28;20285;-63
2023/11/15 05:51:25;;;;;;;2.37;1.20;;;9.40;99.90;;;-141.84;100.00;119224.81;4974860;28;20281;-63
2023/11/15 05:53:53;;;;;;;3.47;1.13;;;9.40;99.90;;;-141.84;100.00;119224.81;4983230;28;20331;-63
2023/11/15 05:56:23;;;;;;;1.77;1.40;;;9.40;99.90;;;-141.84;100.00;119224.81;4982495;28;20231;-64
2023/11/15 05:58:51;;;;;;;2.00;1.13;;;9.40;99.90;;;-141.84;100.00;119224.81;4964382;28;20243;-63
2023/11/15 06:01:20;;;;;;;1.60;1.10;;;9.40;99.90;;;-141.84;100.00;119224.81;4956149;28;20747;-63
2023/11/15 06:03:48;;;;;;;1.73;1.30;;;9.40;99.90;;;-141.84;100.00;119224.81;4984056;28;20231;-64
2023/11/15 06:06:17;;;;;;;1.27;1.13;;;9.40;99.90;;;-141.84;100.00;119224.81;4986779;28;20289;-63
2023/11/15 06:08:47;;;;;;;3.30;2.20;;;9.40;99.90;;;-141.84;100.00;119224.81;4986146;28;20274;-64
2023/11/15 06:11:16;;;;;;;1.50;1.20;;;9.50;99.90;;;-141.84;100.00;119224.81;4977771;28;20826;-64
2023/11/15 06:13:44;;;;;;;1.83;1.10;;;9.40;99.90;;;-141.84;100.00;119224.81;4982161;28;20219;-64
2023/11/15 06:16:12;;;;;;;1.40;1.20;;;9.40;99.90;;;-141.84;100.00;119224.81;4986426;28;20282;-63
2023/11/15 06:18:42;;;;;;;2.43;1.20;;;9.30;99.90;;;-141.84;100.00;119224.81;4986887;28;20247;-64
2023/11/15 06:21:11;;;;;;;2.30;1.33;;;9.30;99.90;;;-141.84;100.00;119224.81;4978195;28;20233;-63
2023/11/15 06:23:39;;;;;;;1.80;1.60;;;9.30;99.90;;;-141.84;100.00;119224.81;4977249;28;20286;-64
2023/11/15 06:26:11;;;;;;;3.93;1.40;;;9.30;99.90;;;-141.84;100.00;119224.81;4966065;28;20314;-64
2023/11/15 06:28:40;;;;;;;3.07;1.50;;;9.30;99.90;;;-141.84;100.00;119224.81;4985675;28;20215;-64
2023/11/15 06:31:08;;;;;;;1.97;1.30;;;9.20;99.90;;;-141.84;100.00;119224.81;4978239;28;20239;-64
2023/11/15 06:33:37;;;;;;;4.53;1.60;;;9.20;99.90;;;-141.84;100.00;119224.81;4986138;28;20838;-63
2023/11/15 06:36:06;;;;;;;3.90;1.63;;;9.10;99.90;;;-141.84;100.00;119224.81;4986083;28;20231;-63
2023/11/15 06:38:35;;;;;;;3.10;1.60;;;9.10;99.90;;;-141.84;100.00;119224.81;4985812;28;20231;-63
2023/11/15 06:41:05;;;;;;;2.23;1.50;;;9.10;99.90;;;-141.84;100.00;119224.81;4983559;28;20211;-64
2023/11/15 06:43:35;;;;;;;2.30;1.50;;;9.10;99.90;;;-141.84;100.00;119224.81;4985798;28;20215;-63
2023/11/15 06:46:03;;;;;;;4.13;1.90;;;9.10;99.90;;;-141.84;100.00;119224.81;4986129;28;20270;-62
2023/11/15 06:48:31;;;;;;;4.60;2.00;;;9.10;99.90;;;-141.84;100.00;119224.81;4985820;28;20239;-64
2023/11/15 06:50:59;;;;;;;2.57;1.60;;;9.20;99.90;;;-141.84;100.00;119224.81;4985818;28;20410;-63
2023/11/15 06:53:28;;;;;;;3.57;1.87;;;9.20;99.90;;;-141.84;100.00;119224.81;4973355;28;20734;-64
2023/11/15 06:55:58;;;;;;;2.37;1.90;;;9.10;99.90;;;-141.84;100.00;119224.81;4965765;28;20604;-64
2023/11/15 06:58:26;;;;;;;2.90;2.20;;;9.10;99.90;;;-141.84;100.00;119224.81;4966368;28;20208;-63
2023/11/15 07:00:56;;;;;;;3.23;2.37;;;9.10;99.90;;;-141.84;100.00;119224.81;4966065;28;20588;-63
2023/11/15 07:03:24;;;;;;;3.47;2.20;;;9.20;99.90;;;-141.84;100.00;119224.81;4974156;28;20629;-63
2023/11/15 07:05:53;;;;;;;3.20;2.20;;;9.20;99.90;;;-141.84;100.00;119224.81;4985623;28;20251;-64
2023/11/15 07:08:21;;;;;;;2.73;1.60;;;9.10;99.90;;;-141.84;100.00;119224.81;4985521;28;20311;-64
2023/11/15 07:10:50;;;;;;;2.67;1.70;;;9.10;99.90;;;-141.84;100.00;119224.81;4985011;28;20211;-63
2023/11/15 07:13:20;;;;;;;3.70;1.63;;;9.00;99.90;;;-141.84;100.00;119224.81;4973074;28;20644;-64
2023/11/15 07:15:50;;;;;;;1.80;1.60;;;9.10;99.90;;;-141.84;100.00;119224.81;4985209;28;20785;-65
2023/11/15 07:18:21;;;;;;;3.00;1.43;;;9.00;99.90;;;-141.84;100.00;119224.81;4985314;28;20274;-63
2023/11/15 07:20:52;;;;;;;2.97;1.53;;;9.10;99.90;;;-141.84;100.00;119224.81;4985462;28;20235;-64
2023/11/15 07:23:20;;;;;;;1.53;1.40;;;9.10;99.90;;;-141.84;100.00;119224.81;4976536;28;20599;-64
2023/11/15 07:25:49;;;;;;;2.60;1.50;;;9.10;99.90;;;-141.84;100.00;119224.81;4984998;28;20731;-64
2023/11/15 07:28:19;;;;;;;4.47;1.80;;;9.00;99.90;;;-141.84;100.00;119224.81;4984953;28;20215;-63
2023/11/15 07:30:50;;;;;;;1.80;1.70;;;9.10;99.90;;;-141.84;100.00;119224.81;4985076;28;20285;-63
2023/11/15 07:33:20;;;;;;;0.80;0.80;;;9.10;99.90;;;-141.84;100.00;119224.81;4976413;28;20235;-63
2023/11/15 07:35:49;;;;;;;2.20;0.83;;;9.00;99.90;;;-141.84;100.00;118689.38;4985096;28;20241;-63
2023/11/15 07:38:18;;;;;;;0.80;0.80;;;8.90;99.90;;;-141.84;100.00;117089.69;4984774;28;20223;-63
2023/11/15 07:40:48;;;;;;;2.67;0.90;;;8.90;99.90;;;-141.84;100.00;117889.44;4984995;28;20309;-62
2023/11/15 07:43:17;;;;;;;3.37;0.90;;;8.80;99.90;;;-141.84;100.00;117356.25;4976871;28;20234;-63
2023/11/15 07:45:51;;;;;;;0.80;0.70;;;8.60;99.90;;;-141.84;100.00;118956.03;4984789;28;20239;-63
2023/11/15 07:48:22;;;;;;;1.93;1.10;;;8.60;99.90;;;-141.84;100.00;119224.81;4984904;28;20222;-63
2023/11/15 07:50:51;;;;;;;1.37;0.80;;;8.60;99.90;;;-141.84;100.00;119222.75;4969858;28;20738;-62
2023/11/15 07:53:19;;;;;;;1.33;1.00;;;8.70;99.90;;;-141.84;100.00;119222.75;4975406;28;20325;-63
2023/11/15 07:55:47;;;;;;;2.00;0.90;;;8.60;99.90;;;-141.84;100.00;119224.81;4993410;28;20240;-68
2023/11/15 07:58:17;;;;;;;1.30;1.20;;;8.60;99.90;;;-141.84;100.00;119224.81;4984167;28;20239;-69
2023/11/15 08:00:45;;;;;;;3.43;1.10;;;8.50;99.90;;;-141.84;100.00;119224.81;4987707;28;20691;-70
2023/11/15 08:03:13;;;;;;;1.07;0.93;;;8.50;99.90;;;-141.84;100.00;119224.81;4976591;28;20287;-69
2023/11/15 08:05:44;;;;;;;1.27;0.90;;;8.60;99.90;;;-141.84;100.00;119224.81;4984582;28;20265;-70
2023/11/15 08:08:13;;;;;;;3.30;2.17;;;8.60;99.90;;;-141.84;100.00;119224.81;5003235;28;20235;-69
2023/11/15 08:10:46;;;;;;;1.43;1.30;;;8.70;99.90;;;-141.84;100.00;119224.81;5003216;28;20234;-68
2023/11/15 08:13:16;;;;;;;2.43;0.80;;;8.70;99.90;;;-141.84;100.00;119224.81;4972053;28;20690;-68
2023/11/15 08:15:45;;;;;;;1.77;0.90;;;8.70;99.90;;;-141.84;100.00;119224.81;4984542;28;20687;-68
2023/11/15 08:18:13;;;;;;;1.10;1.00;;;8.70;99.90;;;-141.84;100.00;119224.81;4984157;28;20318;-69
2023/11/15 08:20:45;;;;;;;1.67;1.17;;;8.90;99.90;;;-141.84;100.00;119224.81;4984830;28;20281;-69
2023/11/15 08:23:13;;;;;;;1.57;1.47;;;8.90;99.90;;;-141.84;100.00;119224.81;4974922;28;20227;-70
2023/11/15 08:25:45;;;;;;;1.93;1.43;;;8.90;99.90;;;-141.84;100.00;119224.81;4982605;28;20231;-75
2023/11/15 08:28:14;;;;;;;1.57;1.30;;;9.00;99.90;;;-141.84;100.00;119224.81;4980204;28;20278;-70
2023/11/15 08:30:45;;;;;;;2.77;1.50;;;9.10;99.90;;;-141.84;100.00;119224.81;4982800;28;20329;-72
2023/11/15 08:33:15;;;;;;;2.43;2.17;;;9.10;99.90;;;-141.84;100.00;119224.81;4975599;28;20231;-71
2023/11/15 08:35:47;;;;;;;2.73;1.50;;;9.20;99.90;;;-141.84;100.00;119224.81;4988956;28;20223;-73
2023/11/15 08:38:18;;;;;;;1.70;1.10;;;9.30;99.90;;;-141.84;100.00;119224.81;5003722;28;20818;-72
2023/11/15 08:40:49;;;;;;;1.40;1.00;;;9.30;99.90;;;-141.84;100.00;119224.81;5002029;28;20244;-73
2023/11/15 08:43:18;;;;;;;1.50;1.40;;;9.30;99.90;;;-141.84;100.00;119222.75;4968777;28;20220;-73
2023/11/15 08:45:46;;;;;;;1.87;1.20;;;9.40;99.90;;;-141.84;100.00;116823.13;4978568;28;20235;-71
2023/11/15 08:48:17;;;;;;;1.83;1.30;;;9.50;99.90;;;-141.84;100.00;116556.59;4983408;28;20223;-71
2023/11/15 08:50:47;;;;;;;1.40;1.27;;;9.50;99.90;;;-141.84;100.00;116023.56;4991081;28;20787;-71
2023/11/15 08:53:18;;;;;;;3.53;1.60;;;9.70;99.90;;;-141.84;100.00;115490.59;4977478;28;20647;-71
2023/11/15 08:55:48;;;;;;;1.47;1.37;;;9.60;99.90;;;-141.84;100.00;111761.88;4983485;28;20494;-70
2023/11/15 08:58:17;;;;;;;4.53;1.87;;;9.70;99.90;;;-141.84;100.00;111495.69;4983102;28;20730;-70
2023/11/15 09:00:50;;;;;;;1.60;1.50;;;9.70;99.90;;;-141.84;100.00;111229.50;4975971;28;20359;-70
2023/11/15 09:03:18;;;;;;;1.80;1.63;;;9.80;99.90;;;-141.84;100.00;113093.19;4975544;28;20600;-70
2023/11/15 09:05:49;;;;;;;2.10;1.83;;;9.90;99.90;;;-141.84;100.00;115490.59;4983603;28;20294;-70
2023/11/15 09:08:21;;;;;;;2.30;1.90;;;9.90;99.90;;;-141.84;100.00;114957.72;4983511;28;20238;-70
2023/11/15 09:10:50;;;;;;;2.27;2.07;;;10.00;99.90;;;-141.84;100.00;108036.56;4983514;28;20218;-72
2023/11/15 09:13:19;;;;;;;2.60;1.97;;;10.00;99.90;;;-141.84;100.00;110164.91;4975325;28;20249;-71
2023/11/15 09:15:50;;;;;;;2.17;1.97;;;10.10;99.90;;;-141.84;100.00;109632.72;4982362;28;20234;-73
2023/11/15 09:18:21;;;;;;;1.90;1.70;;;10.10;99.90;;;-141.84;100.00;106972.81;4982299;28;20598;-78
2023/11/15 09:20:52;;;;;;;2.83;2.00;;;10.10;99.90;;;-141.84;100.00;105111.94;4983328;28;20235;-72
2023/11/15 09:23:22;;;;;;;2.37;1.90;;;10.20;99.90;;;-141.84;100.00;100596.16;4972555;28;20332;-70
2023/11/15 09:25:59;;;;;;;1.80;1.70;;;10.20;99.90;;;-141.84;100.00;98738.19;4982783;28;20215;-75
2023/11/15 09:28:28;;;;;;;2.53;2.20;;;10.30;99.90;;;-141.84;100.00;102189.38;4984076;28;20215;-74
2023/11/15 09:30:56;;;;;;;1.60;1.50;;;10.40;99.90;;;-141.84;100.00;97146.31;4982584;28;20239;-74
2023/11/15 09:33:26;;;;;;;2.60;1.63;;;10.50;99.90;;;-141.84;100.00;89725.88;4975386;28;23475;-77
2023/11/15 09:35:59;;;;;;;3.57;1.70;;;10.40;99.90;;;-141.84;100.00;90785.09;4983456;28;20242;-73
2023/11/15 09:38:29;;;;;;;3.13;1.50;;;10.50;99.90;;;-141.84;100.00;91049.97;4982146;28;20234;-68
2023/11/15 09:40:59;;;;;;;2.03;1.63;;;10.50;99.90;;;-141.84;100.00;82847.66;4982628;28;20345;-69
2023/11/15 09:43:28;;;;;;;1.73;1.30;;;10.40;99.90;;;-141.84;100.00;88137.56;4973158;28;20274;-68
2023/11/15 09:45:58;;;;;;;2.30;1.33;;;10.40;99.90;;;-141.84;100.00;89725.88;4964638;28;20247;-67
2023/11/15 09:48:28;;;;;;;1.80;1.70;;;10.20;99.90;;;-141.84;100.00;92374.47;4963524;28;20351;-71
2023/11/15 09:51:01;;;;;;;1.20;1.10;;;10.20;99.90;;;-141.84;100.00;99003.56;4963052;28;20728;-70
2023/11/15 09:53:34;;;;;;;1.53;1.43;;;10.10;99.90;;;-141.84;100.00;103251.88;4959240;28;20325;-72
2023/11/15 09:56:07;;;;;;;2.50;2.00;;;10.00;99.90;;;-141.84;100.00;106441.06;4963567;28;20203;-69
2023/11/15 09:58:35;;;;;;;3.50;1.70;;;10.00;99.90;;;-141.84;100.00;107770.63;4964349;28;20229;-70
2023/11/15 10:01:06;;;;;;;2.00;1.80;;;9.80;99.90;;;-141.84;100.00;111495.69;4979045;28;20277;-69
2023/11/15 10:03:41;;;;;;;2.23;1.80;;;9.90;99.90;;;-141.84;100.00;114691.31;4982919;28;20227;-75
2023/11/15 10:06:12;;;;;;;2.20;1.70;;;9.70;99.90;;;-141.84;100.00;115757.06;4982553;28;20230;-73
2023/11/15 10:08:58;;;;;;;1.93;1.70;;;9.70;99.90;;;-141.84;100.00;116823.13;4969909;28;20235;-72